Time;durP1;ratioP1;P1;durP2;ratioP2;P2;SDS_P1;SDS_P2;PMS_P1;PMS_P2;Temp;Humidity;BMP_temperature;BMP_pressure;BME280_temperature;BME280_humidity;BME280_pressure;Samples;Min_cycle;Max_cycle;Signal;HPM_P1;HPM_P2
2021/07/22 00:00:02;;;;;;;;;;;23.90;66.60;;;;;;5190542;28;20305;-49
2021/07/22 00:02:47;;;;;;;;;;;23.90;66.60;;;;;;5194215;28;19924;-52
2021/07/22 00:05:19;;;;;;;;;;;23.90;66.60;;;;;;5175626;28;20401;-54
2021/07/22 00:07:52;;;;;;;;;;;23.90;66.60;;;;;;5192630;28;20286;-51
2021/07/22 00:10:24;;;;;;;;;;;23.90;66.60;;;;;;5199603;28;19932;-49
2021/07/22 00:12:57;;;;;;;;;;;23.90;66.70;;;;;;5204334;28;19936;-50
2021/07/22 00:15:29;;;;;;;;;;;23.90;66.60;;;;;;5201089;28;19925;-51
2021/07/22 00:18:04;;;;;;;;;;;23.90;66.70;;;;;;5193789;28;20304;-52
2021/07/22 00:20:36;;;;;;;;;;;23.90;66.70;;;;;;5178825;28;19936;-53
2021/07/22 00:23:09;;;;;;;;;;;23.80;66.60;;;;;;5195774;28;19928;-50
2021/07/22 00:25:42;;;;;;;;;;;23.80;66.60;;;;;;5195053;28;19931;-51
2021/07/22 00:28:14;;;;;;;;;;;23.80;66.70;;;;;;5197711;28;19928;-48
2021/07/22 00:30:46;;;;;;;;;;;23.80;66.70;;;;;;5195963;28;20397;-50
2021/07/22 00:33:19;;;;;;;;;;;23.80;66.60;;;;;;5196016;28;19925;-49
2021/07/22 00:35:52;;;;;;;;;;;23.80;66.60;;;;;;5212961;28;19929;-52
2021/07/22 00:38:24;;;;;;;;;;;23.80;66.70;;;;;;5194199;28;19925;-51
2021/07/22 00:40:57;;;;;;;;;;;23.80;66.70;;;;;;5172454;28;19929;-52
2021/07/22 00:43:29;;;;;;;;;;;23.80;66.70;;;;;;5179625;28;19928;-51
2021/07/22 00:46:01;;;;;;;;;;;23.80;66.70;;;;;;5193485;28;19935;-53
2021/07/22 00:48:34;;;;;;;;;;;23.70;66.80;;;;;;5196574;28;19925;-49
2021/07/22 00:51:07;;;;;;;;;;;23.80;66.70;;;;;;5188374;28;19925;-50
2021/07/22 00:53:40;;;;;;;;;;;23.70;66.60;;;;;;5181373;28;19932;-50
2021/07/22 00:56:12;;;;;;;;;;;23.70;66.60;;;;;;5199700;28;20673;-51
2021/07/22 00:58:45;;;;;;;;;;;23.70;66.50;;;;;;5212156;28;20309;-51
2021/07/22 01:01:18;;;;;;;;;;;23.70;66.50;;;;;;5184613;28;20067;-50
2021/07/22 01:03:51;;;;;;;;;;;23.70;66.50;;;;;;5199395;28;19924;-47
2021/07/22 01:06:24;;;;;;;;;;;23.70;66.50;;;;;;5192602;28;19967;-49
2021/07/22 01:08:57;;;;;;;;;;;23.70;66.50;;;;;;5195946;28;19929;-50
2021/07/22 01:11:33;;;;;;;;;;;23.70;66.50;;;;;;5224862;28;19932;-49
2021/07/22 01:14:05;;;;;;;;;;;23.70;66.50;;;;;;5208559;28;19924;-52
2021/07/22 01:16:38;;;;;;;;;;;23.70;66.50;;;;;;5209385;28;20377;-52
2021/07/22 01:19:10;;;;;;;;;;;23.70;66.50;;;;;;5196163;28;19932;-51
2021/07/22 01:21:43;;;;;;;;;;;23.60;66.40;;;;;;5209841;28;19925;-49
2021/07/22 01:24:16;;;;;;;;;;;23.60;66.40;;;;;;5195044;28;19925;-50
2021/07/22 01:27:06;;;;;;;;;;;23.60;66.40;;;;;;5209786;28;19928;-51
2021/07/22 01:29:47;;;;;;;;;;;23.60;66.40;;;;;;5195935;28;19925;-53
2021/07/22 01:32:20;;;;;;;;;;;23.60;66.40;;;;;;5210743;28;19940;-47
2021/07/22 01:34:55;;;;;;;;;;;23.60;66.40;;;;;;5193100;28;19932;-52
2021/07/22 01:37:29;;;;;;;;;;;23.60;66.30;;;;;;5196518;28;19932;-54
2021/07/22 01:40:05;;;;;;;;;;;23.60;66.40;;;;;;5224311;28;19925;-46
2021/07/22 01:42:37;;;;;;;;;;;23.60;66.30;;;;;;5192366;28;19929;-52
2021/07/22 01:45:10;;;;;;;;;;;23.60;66.30;;;;;;5222042;28;19948;-54
2021/07/22 01:47:47;;;;;;;;;;;23.60;66.30;;;;;;5209017;28;19928;-53
2021/07/22 01:50:19;;;;;;;;;;;23.60;66.30;;;;;;5208025;28;20321;-49
2021/07/22 01:52:52;;;;;;;;;;;23.50;66.10;;;;;;5208367;28;19929;-51
2021/07/22 01:55:24;;;;;;;;;;;23.50;66.10;;;;;;5206740;28;19932;-50
2021/07/22 01:58:03;;;;;;;;;;;23.50;66.00;;;;;;5195380;28;19924;-50
2021/07/22 02:00:41;;;;;;;;;;;23.60;66.00;;;;;;5206084;28;20286;-51
2021/07/22 02:03:14;;;;;;;;;;;23.50;65.90;;;;;;5207324;28;19924;-49
2021/07/22 02:06:06;;;;;;;;;;;23.50;65.90;;;;;;5187965;28;19925;-46
2021/07/22 02:08:39;;;;;;;;;;;23.50;65.90;;;;;;5185923;28;19925;-52
2021/07/22 02:11:12;;;;;;;;;;;23.50;65.80;;;;;;5181280;28;19925;-48
2021/07/22 02:13:44;;;;;;;;;;;23.50;65.80;;;;;;5197809;28;20329;-49
2021/07/22 02:16:17;;;;;;;;;;;23.50;66.40;;;;;;5181132;28;20412;-50
2021/07/22 02:18:50;;;;;;;;;;;23.50;66.40;;;;;;5182244;28;19924;-49
2021/07/22 02:21:29;;;;;;;;;;;23.50;65.70;;;;;;5210797;28;19932;-52
2021/07/22 02:24:01;;;;;;;;;;;23.50;65.70;;;;;;5196038;28;19932;-47
2021/07/22 02:26:40;;;;;;;;;;;23.50;66.30;;;;;;5212190;28;20530;-53
2021/07/22 02:29:12;;;;;;;;;;;23.40;65.50;;;;;;5183546;28;20434;-47
2021/07/22 02:31:45;;;;;;;;;;;23.40;65.50;;;;;;5197741;28;19925;-50
2021/07/22 02:34:19;;;;;;;;;;;23.50;65.50;;;;;;5217838;28;20332;-47
2021/07/22 02:36:51;;;;;;;;;;;23.40;65.40;;;;;;5165618;28;19939;-51
2021/07/22 02:39:29;;;;;;;;;;;23.40;65.40;;;;;;5184596;28;19925;-52
2021/07/22 02:42:01;;;;;;;;;;;23.40;65.40;;;;;;5182774;28;20573;-51
2021/07/22 02:44:39;;;;;;;;;;;23.40;65.40;;;;;;5211174;28;19924;-51
2021/07/22 02:47:26;;;;;;;;;;;23.40;65.40;;;;;;5214771;28;20388;-49
2021/07/22 02:50:00;;;;;;;;;;;23.40;65.30;;;;;;5182667;28;19932;-50
2021/07/22 02:52:34;;;;;;;;;;;23.40;65.30;;;;;;5214903;28;19925;-53
2021/07/22 02:55:07;;;;;;;;;;;23.40;65.30;;;;;;5181597;28;19928;-54
2021/07/22 02:57:40;;;;;;;;;;;23.40;65.30;;;;;;5193889;28;19932;-54
2021/07/22 03:00:12;;;;;;;;;;;23.40;65.20;;;;;;5203545;28;19925;-51
2021/07/22 03:02:47;;;;;;;;;;;23.30;65.20;;;;;;5219227;28;19955;-49
2021/07/22 03:05:20;;;;;;;;;;;23.30;65.10;;;;;;5225619;28;20599;-47
2021/07/22 03:07:55;;;;;;;;;;;23.40;65.20;;;;;;5202033;28;19924;-47
2021/07/22 03:10:28;;;;;;;;;;;23.40;65.30;;;;;;5226163;28;20308;-47
2021/07/22 03:13:03;;;;;;;;;;;23.30;65.20;;;;;;5202845;28;19928;-49
2021/07/22 03:15:37;;;;;;;;;;;23.30;65.20;;;;;;5198716;28;19929;-51
2021/07/22 03:18:18;;;;;;;;;;;23.30;65.20;;;;;;5202094;28;19925;-53
2021/07/22 03:20:51;;;;;;;;;;;23.30;65.20;;;;;;5204328;28;19928;-49
2021/07/22 03:23:25;;;;;;;;;;;23.30;65.00;;;;;;5190242;28;19932;-51
2021/07/22 03:25:57;;;;;;;;;;;23.30;65.00;;;;;;5203826;28;19929;-51
2021/07/22 03:28:33;;;;;;;;;;;23.30;64.80;;;;;;5186897;28;20000;-50
2021/07/22 03:31:20;;;;;;;;;;;23.30;64.90;;;;;;5189423;28;19924;-50
2021/07/22 03:33:59;;;;;;;;;;;23.30;64.90;;;;;;5189636;28;19931;-48
2021/07/22 03:36:38;;;;;;;;;;;23.30;64.90;;;;;;5188524;28;19921;-48
2021/07/22 03:39:17;;;;;;;;;;;23.30;64.90;;;;;;5191036;28;19928;-47
2021/07/22 03:41:52;;;;;;;;;;;23.20;64.90;;;;;;5203689;28;19949;-47
2021/07/22 03:44:53;;;;;;;;;;;23.30;64.90;;;;;;5187180;28;19960;-48
2021/07/22 03:47:27;;;;;;;;;;;23.20;64.80;;;;;;5202628;28;19936;-49
2021/07/22 03:50:02;;;;;;;;;;;23.30;64.80;;;;;;5191954;28;20396;-48
2021/07/22 03:52:52;;;;;;;;;;;23.20;64.70;;;;;;5193794;28;19925;-49
2021/07/22 03:55:25;;;;;;;;;;;23.20;64.60;;;;;;5201763;28;20279;-48
2021/07/22 03:58:21;;;;;;;;;;;23.20;64.60;;;;;;5182515;28;19929;-50
2021/07/22 04:01:04;;;;;;;;;;;23.20;64.70;;;;;;5191826;28;19924;-46
2021/07/22 04:03:43;;;;;;;;;;;23.20;64.70;;;;;;5187959;28;20340;-49
2021/07/22 04:06:18;;;;;;;;;;;23.20;64.60;;;;;;5185700;28;19925;-51
2021/07/22 04:08:53;;;;;;;;;;;23.20;64.70;;;;;;5179253;28;20408;-47
2021/07/22 04:11:45;;;;;;;;;;;23.20;64.70;;;;;;5184982;28;19932;-47
2021/07/22 04:14:43;;;;;;;;;;;23.20;64.90;;;;;;5171000;28;19932;-48
2021/07/22 04:17:43;;;;;;;;;;;23.20;65.10;;;;;;5174136;28;19924;-46
2021/07/22 04:20:31;;;;;;;;;;;23.20;65.30;;;;;;5191038;28;20312;-49
2021/07/22 04:23:09;;;;;;;;;;;23.20;66.00;;;;;;5205742;28;19936;-51
2021/07/22 04:26:13;;;;;;;;;;;23.20;65.50;;;;;;5176378;28;20465;-49
2021/07/22 04:29:05;;;;;;;;;;;23.20;65.60;;;;;;5191054;28;19925;-49
2021/07/22 04:31:38;;;;;;;;;;;23.20;65.60;;;;;;5193982;28;19936;-52
2021/07/22 04:34:26;;;;;;;;;;;23.20;65.70;;;;;;5195223;28;19928;-54
2021/07/22 04:37:15;;;;;;;;;;;23.20;65.70;;;;;;5205309;28;19929;-49
2021/07/22 04:40:10;;;;;;;;;;;23.20;65.70;;;;;;5187433;28;19932;-49
2021/07/22 04:43:06;;;;;;;;;;;23.20;65.80;;;;;;5186197;28;19925;-49
2021/07/22 04:46:02;;;;;;;;;;;23.20;65.90;;;;;;5159002;28;19936;-47
2021/07/22 04:49:10;;;;;;;;;;;23.20;65.90;;;;;;5161971;28;19932;-50
2021/07/22 04:52:02;;;;;;;;;;;23.20;65.90;;;;;;5175030;28;20112;-46
2021/07/22 04:54:42;;;;;;;;;;;23.20;66.00;;;;;;5178510;28;20240;-48
2021/07/22 04:57:15;;;;;;;;;;;23.20;66.10;;;;;;5164648;28;19924;-47
2021/07/22 04:59:50;;;;;;;;;;;23.20;66.20;;;;;;5189469;28;19940;-49
2021/07/22 05:02:24;;;;;;;;;;;23.20;66.00;;;;;;5169719;28;19924;-46
2021/07/22 05:04:57;;;;;;;;;;;23.20;65.50;;;;;;5184781;28;20307;-51
2021/07/22 05:07:30;;;;;;;;;;;23.00;65.50;;;;;;5152425;28;19936;-48
2021/07/22 05:10:40;;;;;;;;;;;22.90;65.70;;;;;;5130044;28;19929;-44
2021/07/22 05:13:39;;;;;;;;;;;22.80;66.00;;;;;;5117374;28;19933;-48
2021/07/22 05:16:17;;;;;;;;;;;22.70;66.40;;;;;;5147800;28;19929;-51
2021/07/22 05:19:11;;;;;;;;;;;22.60;66.60;;;;;;5167858;28;19940;-52
2021/07/22 05:21:49;;;;;;;;;;;22.60;66.70;;;;;;5179637;28;20309;-48
2021/07/22 05:24:27;;;;;;;;;;;22.60;67.00;;;;;;5188047;28;19929;-52
2021/07/22 05:27:19;;;;;;;;;;;22.60;67.00;;;;;;5211273;28;19929;-55
2021/07/22 05:30:07;;;;;;;;;;;22.60;67.10;;;;;;5153398;28;19925;-53
2021/07/22 05:32:52;;;;;;;;;;;22.60;67.00;;;;;;5185529;28;19933;-50
2021/07/22 05:35:33;;;;;;;;;;;22.70;67.20;;;;;;5179345;28;20164;-50
2021/07/22 05:38:24;;;;;;;;;;;22.70;67.20;;;;;;5190161;28;19925;-47
2021/07/22 05:41:00;;;;;;;;;;;22.80;67.30;;;;;;5186296;28;19955;-51
2021/07/22 05:43:32;;;;;;;;;;;22.80;67.50;;;;;;5190311;28;19925;-49
2021/07/22 05:46:04;;;;;;;;;;;22.90;67.50;;;;;;5191239;28;19932;-51
2021/07/22 05:48:37;;;;;;;;;;;22.90;67.40;;;;;;5190290;28;19932;-51
2021/07/22 05:51:10;;;;;;;;;;;23.00;67.50;;;;;;5179476;28;19932;-52
2021/07/22 05:53:42;;;;;;;;;;;23.00;67.50;;;;;;5189551;28;19932;-54
2021/07/22 05:56:17;;;;;;;;;;;23.00;67.50;;;;;;5177002;28;19925;-54
2021/07/22 05:58:51;;;;;;;;;;;23.00;67.60;;;;;;5177805;28;19935;-54
2021/07/22 06:01:23;;;;;;;;;;;23.10;67.70;;;;;;5194328;28;19928;-51
2021/07/22 06:03:56;;;;;;;;;;;23.10;67.70;;;;;;5206187;28;19936;-53
2021/07/22 06:06:28;;;;;;;;;;;23.10;67.70;;;;;;5201709;28;19928;-47
2021/07/22 06:09:01;;;;;;;;;;;23.10;67.70;;;;;;5194558;28;19951;-50
2021/07/22 06:11:33;;;;;;;;;;;23.10;67.70;;;;;;5196462;28;19971;-49
2021/07/22 06:14:05;;;;;;;;;;;23.20;67.80;;;;;;5194160;28;20312;-48
2021/07/22 06:16:38;;;;;;;;;;;23.20;67.80;;;;;;5193853;28;20387;-47
2021/07/22 06:19:10;;;;;;;;;;;23.20;67.80;;;;;;5199022;28;20695;-53
2021/07/22 06:21:42;;;;;;;;;;;23.20;67.80;;;;;;5199018;28;19925;-52
2021/07/22 06:24:15;;;;;;;;;;;23.20;68.10;;;;;;5219307;28;19925;-51
2021/07/22 06:26:47;;;;;;;;;;;23.30;68.10;;;;;;5205452;28;19921;-48
2021/07/22 06:29:19;;;;;;;;;;;23.30;68.10;;;;;;5193600;28;19936;-51
2021/07/22 06:31:51;;;;;;;;;;;23.30;68.00;;;;;;5192023;28;19925;-52
2021/07/22 06:34:23;;;;;;;;;;;23.30;68.00;;;;;;5171036;28;19935;-50
2021/07/22 06:36:56;;;;;;;;;;;23.30;68.00;;;;;;5194934;28;20415;-50
2021/07/22 06:39:32;;;;;;;;;;;23.30;68.00;;;;;;5190228;28;19931;-50
2021/07/22 06:42:04;;;;;;;;;;;23.30;68.00;;;;;;5194133;28;19924;-55
2021/07/22 06:44:36;;;;;;;;;;;23.30;68.10;;;;;;5195540;28;19936;-51
2021/07/22 06:47:08;;;;;;;;;;;23.30;68.10;;;;;;5186461;28;19929;-53
2021/07/22 06:49:41;;;;;;;;;;;23.30;68.10;;;;;;5176520;28;19935;-48
2021/07/22 06:52:13;;;;;;;;;;;23.30;68.20;;;;;;5191262;28;19932;-53
2021/07/22 06:54:45;;;;;;;;;;;23.40;68.30;;;;;;5198906;28;20312;-51
2021/07/22 06:57:17;;;;;;;;;;;23.40;68.30;;;;;;5174258;28;19936;-51
2021/07/22 06:59:49;;;;;;;;;;;23.40;68.40;;;;;;5172094;28;19928;-51
2021/07/22 07:02:22;;;;;;;;;;;23.40;68.50;;;;;;5184583;28;19929;-54
2021/07/22 07:04:54;;;;;;;;;;;23.40;68.60;;;;;;5171914;28;20405;-54
2021/07/22 07:07:26;;;;;;;;;;;23.40;68.50;;;;;;5190054;28;19921;-53
2021/07/22 07:09:59;;;;;;;;;;;23.40;68.50;;;;;;5179087;28;20392;-53
2021/07/22 07:12:31;;;;;;;;;;;23.40;68.60;;;;;;5187706;28;19929;-52
2021/07/22 07:15:03;;;;;;;;;;;23.40;68.70;;;;;;5182856;28;19929;-52
2021/07/22 07:17:36;;;;;;;;;;;23.40;68.60;;;;;;5192331;28;20385;-53
2021/07/22 07:20:08;;;;;;;;;;;23.40;68.60;;;;;;5188099;28;20192;-51
2021/07/22 07:22:41;;;;;;;;;;;23.40;68.60;;;;;;5183566;28;21121;-50
2021/07/22 07:25:13;;;;;;;;;;;23.40;68.70;;;;;;5183062;28;19929;-48
2021/07/22 07:27:45;;;;;;;;;;;23.50;68.70;;;;;;5180172;28;19948;-52
2021/07/22 07:30:19;;;;;;;;;;;23.50;68.80;;;;;;5203639;28;19925;-53
2021/07/22 07:32:53;;;;;;;;;;;23.50;68.80;;;;;;5190181;28;20476;-53
2021/07/22 07:35:26;;;;;;;;;;;23.50;68.80;;;;;;5191021;28;20403;-48
2021/07/22 07:37:58;;;;;;;;;;;23.50;68.70;;;;;;5192992;28;19931;-52
2021/07/22 07:40:30;;;;;;;;;;;23.50;68.80;;;;;;5192272;28;19932;-52
2021/07/22 07:43:02;;;;;;;;;;;23.50;68.90;;;;;;5191082;28;20019;-49
2021/07/22 07:45:35;;;;;;;;;;;23.50;69.00;;;;;;5184620;28;19925;-53
2021/07/22 07:48:08;;;;;;;;;;;23.50;69.10;;;;;;5194043;28;19928;-53
2021/07/22 07:50:40;;;;;;;;;;;23.50;69.10;;;;;;5191299;28;20025;-50
2021/07/22 07:53:13;;;;;;;;;;;23.50;69.10;;;;;;5202680;28;20014;-50
2021/07/22 07:55:46;;;;;;;;;;;23.50;69.20;;;;;;5184710;28;19939;-49
2021/07/22 07:58:18;;;;;;;;;;;23.60;69.20;;;;;;5183391;28;19929;-54
2021/07/22 08:00:51;;;;;;;;;;;23.50;69.20;;;;;;5186525;28;19932;-50
2021/07/22 08:03:24;;;;;;;;;;;23.60;69.20;;;;;;5174400;28;19924;-50
2021/07/22 08:05:56;;;;;;;;;;;23.60;69.20;;;;;;5186042;28;20516;-55
2021/07/22 08:08:28;;;;;;;;;;;23.60;69.20;;;;;;5189773;28;19936;-53
2021/07/22 08:11:01;;;;;;;;;;;23.50;69.10;;;;;;5187186;28;19924;-50
2021/07/22 08:13:33;;;;;;;;;;;23.60;69.20;;;;;;5187438;28;19936;-51
2021/07/22 08:16:05;;;;;;;;;;;23.60;69.10;;;;;;5178868;28;19928;-53
2021/07/22 08:18:37;;;;;;;;;;;23.60;69.10;;;;;;5176309;28;19935;-51
2021/07/22 08:21:10;;;;;;;;;;;23.60;69.10;;;;;;5180936;28;20731;-51
2021/07/22 08:23:42;;;;;;;;;;;23.60;69.00;;;;;;5178957;28;20039;-52
2021/07/22 08:26:14;;;;;;;;;;;23.60;69.00;;;;;;5183671;28;20476;-50
2021/07/22 08:28:47;;;;;;;;;;;23.60;68.90;;;;;;5189930;28;19925;-52
2021/07/22 08:31:19;;;;;;;;;;;23.60;68.90;;;;;;5194929;28;20351;-49
2021/07/22 08:33:52;;;;;;;;;;;23.60;68.80;;;;;;5193477;28;20426;-51
2021/07/22 08:36:24;;;;;;;;;;;23.60;68.80;;;;;;5204426;28;19940;-53
2021/07/22 08:38:56;;;;;;;;;;;23.60;68.80;;;;;;5191547;28;19924;-53
2021/07/22 08:41:29;;;;;;;;;;;23.70;68.80;;;;;;5192419;28;19921;-50
2021/07/22 08:44:02;;;;;;;;;;;23.60;68.70;;;;;;5195452;28;19936;-52
2021/07/22 08:46:39;;;;;;;;;;;23.60;68.70;;;;;;5194081;28;19921;-51
2021/07/22 08:49:12;;;;;;;;;;;23.60;68.60;;;;;;5194143;28;19929;-52
2021/07/22 08:51:44;;;;;;;;;;;23.60;68.60;;;;;;5196343;28;20373;-50
2021/07/22 08:54:16;;;;;;;;;;;23.70;68.50;;;;;;5196411;28;19936;-54
2021/07/22 08:56:49;;;;;;;;;;;23.70;68.50;;;;;;5194872;28;20413;-53
2021/07/22 08:59:22;;;;;;;;;;;23.70;68.40;;;;;;5191064;28;19936;-50
2021/07/22 09:01:56;;;;;;;;;;;23.70;68.40;;;;;;5184252;28;20401;-51
2021/07/22 09:04:28;;;;;;;;;;;23.70;68.40;;;;;;5186766;28;19924;-53
2021/07/22 09:07:00;;;;;;;;;;;23.70;68.30;;;;;;5188950;28;19932;-48
2021/07/22 09:09:32;;;;;;;;;;;23.70;68.30;;;;;;5189037;28;19928;-53
2021/07/22 09:12:05;;;;;;;;;;;23.70;68.30;;;;;;5177342;28;19925;-53
2021/07/22 09:14:37;;;;;;;;;;;23.70;68.40;;;;;;5196581;28;19931;-51
2021/07/22 09:17:25;;;;;;;;;;;23.70;68.30;;;;;;5176912;28;19929;-54
2021/07/22 09:19:58;;;;;;;;;;;23.70;68.30;;;;;;5193262;28;20312;-48
2021/07/22 09:22:40;;;;;;;;;;;23.70;68.30;;;;;;5189672;28;19925;-51
2021/07/22 09:25:12;;;;;;;;;;;23.70;68.30;;;;;;5188373;28;19932;-51
2021/07/22 09:27:45;;;;;;;;;;;23.70;68.30;;;;;;5196213;28;20400;-50
2021/07/22 09:30:18;;;;;;;;;;;23.80;68.30;;;;;;5197743;28;20400;-53
2021/07/22 09:32:50;;;;;;;;;;;23.80;68.30;;;;;;5199534;28;21044;-50
2021/07/22 09:35:22;;;;;;;;;;;23.80;68.40;;;;;;5199280;28;19929;-50
2021/07/22 09:37:55;;;;;;;;;;;23.80;68.30;;;;;;5189360;28;19932;-52
2021/07/22 09:40:30;;;;;;;;;;;23.80;68.40;;;;;;5197094;28;20476;-51
2021/07/22 09:43:02;;;;;;;;;;;23.80;68.40;;;;;;5217468;28;20384;-51
2021/07/22 09:45:37;;;;;;;;;;;23.80;68.40;;;;;;5187770;28;20376;-53
2021/07/22 09:48:10;;;;;;;;;;;23.80;68.40;;;;;;5203381;28;19928;-55
2021/07/22 09:50:44;;;;;;;;;;;23.80;68.40;;;;;;5203635;28;19944;-53
2021/07/22 09:53:16;;;;;;;;;;;23.80;68.50;;;;;;5200887;28;19959;-49
2021/07/22 09:55:52;;;;;;;;;;;23.80;68.40;;;;;;5207176;28;19920;-54
2021/07/22 09:58:26;;;;;;;;;;;23.90;68.50;;;;;;5206283;28;19947;-51
2021/07/22 10:01:00;;;;;;;;;;;23.80;68.40;;;;;;5200934;28;20972;-52
2021/07/22 10:03:32;;;;;;;;;;;23.90;68.40;;;;;;5187204;28;20620;-52
2021/07/22 10:06:06;;;;;;;;;;;23.80;68.40;;;;;;5183353;28;19924;-53
2021/07/22 10:08:39;;;;;;;;;;;23.80;68.40;;;;;;5191463;28;19925;-51
2021/07/22 10:11:12;;;;;;;;;;;23.90;68.40;;;;;;5204133;28;20385;-49
2021/07/22 10:13:47;;;;;;;;;;;23.90;68.40;;;;;;5221107;28;19924;-53
2021/07/22 10:16:20;;;;;;;;;;;23.90;68.40;;;;;;5200084;28;19979;-52
2021/07/22 10:18:55;;;;;;;;;;;23.90;68.40;;;;;;5201673;28;19925;-51
2021/07/22 10:21:28;;;;;;;;;;;23.90;68.40;;;;;;5201500;28;19925;-52
2021/07/22 10:24:00;;;;;;;;;;;23.90;68.50;;;;;;5202230;28;19925;-52
2021/07/22 10:26:39;;;;;;;;;;;23.90;68.40;;;;;;5205674;28;19924;-53
2021/07/22 10:29:11;;;;;;;;;;;23.90;68.40;;;;;;5205906;28;19929;-49
2021/07/22 10:31:46;;;;;;;;;;;23.90;68.40;;;;;;5204108;28;20388;-53
2021/07/22 10:34:19;;;;;;;;;;;23.90;68.40;;;;;;5201096;28;19929;-52
2021/07/22 10:36:51;;;;;;;;;;;23.90;68.30;;;;;;5201854;28;19929;-52
2021/07/22 10:39:42;;;;;;;;;;;24.00;68.40;;;;;;5200670;28;19921;-53
2021/07/22 10:42:37;;;;;;;;;;;24.00;68.30;;;;;;5198807;28;19933;-52
2021/07/22 10:45:25;;;;;;;;;;;24.00;68.40;;;;;;5197397;28;20416;-56
2021/07/22 10:48:01;;;;;;;;;;;24.00;68.30;;;;;;5203503;28;19960;-49
2021/07/22 10:50:40;;;;;;;;;;;24.00;68.30;;;;;;5202916;28;20179;-54
2021/07/22 10:53:12;;;;;;;;;;;24.00;68.30;;;;;;5199030;28;19982;-53
2021/07/22 10:55:45;;;;;;;;;;;24.00;68.30;;;;;;5196923;28;19929;-52
2021/07/22 10:58:24;;;;;;;;;;;24.00;68.30;;;;;;5199825;28;19932;-49
2021/07/22 11:00:56;;;;;;;;;;;24.00;68.20;;;;;;5177563;28;19929;-54
2021/07/22 11:03:36;;;;;;;;;;;24.00;68.20;;;;;;5192906;28;19931;-52
2021/07/22 11:06:10;;;;;;;;;;;24.00;68.30;;;;;;5198470;28;19932;-50
2021/07/22 11:08:43;;;;;;;;;;;24.00;68.30;;;;;;5198205;28;19951;-54
2021/07/22 11:11:17;;;;;;;;;;;24.00;68.30;;;;;;5194441;28;20554;-53
2021/07/22 11:13:50;;;;;;;;;;;24.10;68.30;;;;;;5198999;28;19963;-52
2021/07/22 11:16:28;;;;;;;;;;;24.10;68.30;;;;;;5196237;28;19927;-52
2021/07/22 11:19:13;;;;;;;;;;;24.10;68.20;;;;;;5186729;28;19929;-56
2021/07/22 11:21:50;;;;;;;;;;;24.10;68.30;;;;;;5187469;28;20805;-54
2021/07/22 11:24:25;;;;;;;;;;;24.10;68.20;;;;;;5184477;28;20441;-50
2021/07/22 11:26:58;;;;;;;;;;;24.10;68.20;;;;;;5169491;28;19921;-51
2021/07/22 11:29:30;;;;;;;;;;;24.10;68.80;;;;;;5207803;28;19924;-54
2021/07/22 11:32:03;;;;;;;;;;;24.10;68.10;;;;;;5192221;28;20643;-52
2021/07/22 11:34:36;;;;;;;;;;;24.20;68.00;;;;;;5169774;28;19932;-51
2021/07/22 11:37:16;;;;;;;;;;;24.20;68.00;;;;;;5187191;28;19935;-51
2021/07/22 11:39:49;;;;;;;;;;;24.20;68.00;;;;;;5184739;28;19925;-56
2021/07/22 11:42:21;;;;;;;;;;;24.20;67.80;;;;;;5164198;28;19939;-58
2021/07/22 11:45:04;;;;;;;;;;;24.20;67.90;;;;;;5145898;28;20393;-57
2021/07/22 11:47:36;;;;;;;;;;;24.20;67.90;;;;;;5158198;28;19928;-58
2021/07/22 11:50:09;;;;;;;;;;;24.30;67.80;;;;;;5175239;28;20889;-58
2021/07/22 11:52:41;;;;;;;;;;;24.40;67.80;;;;;;5153626;28;20595;-56
2021/07/22 11:55:14;;;;;;;;;;;24.40;67.50;;;;;;5166517;28;19938;-56
2021/07/22 11:57:46;;;;;;;;;;;24.50;67.60;;;;;;5178660;28;19952;-54
2021/07/22 12:00:22;;;;;;;;;;;24.60;67.40;;;;;;5170400;28;19925;-55
2021/07/22 12:02:55;;;;;;;;;;;24.60;67.40;;;;;;5177114;28;20412;-55
2021/07/22 12:05:27;;;;;;;;;;;24.70;67.40;;;;;;5179025;28;20293;-57
2021/07/22 12:08:18;;;;;;;;;;;24.80;67.30;;;;;;5179341;28;19925;-58
2021/07/22 12:10:57;;;;;;;;;;;24.90;67.10;;;;;;5171882;28;19925;-58
2021/07/22 12:13:48;;;;;;;;;;;24.90;67.60;;;;;;5172153;28;19925;-58
2021/07/22 12:16:22;;;;;;;;;;;25.00;66.80;;;;;;5171234;28;19935;-56
2021/07/22 12:18:54;;;;;;;;;;;25.10;66.80;;;;;;5173179;28;19940;-55
2021/07/22 12:21:28;;;;;;;;;;;25.20;66.60;;;;;;5159490;28;19929;-57
2021/07/22 12:24:16;;;;;;;;;;;25.20;66.40;;;;;;5167386;28;19929;-58
2021/07/22 12:26:48;;;;;;;;;;;25.30;66.70;;;;;;5182449;28;20886;-52
2021/07/22 12:29:21;;;;;;;;;;;25.30;66.00;;;;;;5182727;28;19925;-58
2021/07/22 12:31:53;;;;;;;;;;;25.40;66.00;;;;;;5177803;28;19924;-54
2021/07/22 12:34:35;;;;;;;;;;;25.50;66.00;;;;;;5176774;28;19935;-57
2021/07/22 12:37:07;;;;;;;;;;;25.50;65.80;;;;;;5154370;28;21080;-55
2021/07/22 12:39:40;;;;;;;;;;;25.60;65.60;;;;;;5173363;28;19924;-57
2021/07/22 12:42:13;;;;;;;;;;;25.60;65.70;;;;;;5177181;28;19929;-56
2021/07/22 12:44:47;;;;;;;;;;;25.70;65.40;;;;;;5179442;28;19924;-56
2021/07/22 12:47:25;;;;;;;;;;;25.80;65.40;;;;;;5175028;28;19935;-56
2021/07/22 12:49:58;;;;;;;;;;;25.80;65.20;;;;;;5170811;28;19931;-57
2021/07/22 12:52:31;;;;;;;;;;;25.80;65.20;;;;;;5168469;28;20067;-58
2021/07/22 12:55:03;;;;;;;;;;;25.90;65.20;;;;;;5174472;28;19928;-56
2021/07/22 12:57:36;;;;;;;;;;;25.90;65.10;;;;;;5179235;28;19936;-53
2021/07/22 13:00:10;;;;;;;;;;;25.90;65.00;;;;;;5162662;28;19936;-58
2021/07/22 13:02:58;;;;;;;;;;;26.00;65.00;;;;;;5149448;28;19936;-55
2021/07/22 13:05:30;;;;;;;;;;;26.00;64.90;;;;;;5168225;28;20440;-57
2021/07/22 13:08:03;;;;;;;;;;;26.00;64.90;;;;;;5166722;28;21244;-56
2021/07/22 13:10:50;;;;;;;;;;;26.10;64.90;;;;;;5163719;28;19929;-58
2021/07/22 13:13:23;;;;;;;;;;;26.20;64.80;;;;;;5165512;28;20377;-57
2021/07/22 13:15:56;;;;;;;;;;;26.20;64.80;;;;;;5171653;28;26042;-57
2021/07/22 13:18:28;;;;;;;;;;;26.20;64.70;;;;;;5165533;28;19935;-57
2021/07/22 13:21:11;;;;;;;;;;;26.20;64.70;;;;;;5165557;28;19948;-55
2021/07/22 13:23:43;;;;;;;;;;;26.20;64.80;;;;;;5161676;28;19935;-58
2021/07/22 13:26:16;;;;;;;;;;;26.20;64.50;;;;;;5162177;28;19932;-57
2021/07/22 13:28:49;;;;;;;;;;;26.30;64.50;;;;;;5157625;28;20529;-58
2021/07/22 13:31:21;;;;;;;;;;;26.30;64.40;;;;;;5161014;28;20694;-64
2021/07/22 13:33:53;;;;;;;;;;;26.30;64.40;;;;;;5139516;28;19928;-56
2021/07/22 13:36:26;;;;;;;;;;;26.40;64.40;;;;;;5162090;28;20419;-58
2021/07/22 13:38:58;;;;;;;;;;;26.40;64.40;;;;;;5161894;28;20393;-54
2021/07/22 13:41:30;;;;;;;;;;;26.40;64.40;;;;;;5175119;28;20013;-53
2021/07/22 13:44:03;;;;;;;;;;;26.40;64.40;;;;;;5164185;28;19924;-58
2021/07/22 13:46:35;;;;;;;;;;;26.50;64.40;;;;;;5173967;28;19925;-55
2021/07/22 13:49:07;;;;;;;;;;;26.50;64.30;;;;;;5167337;28;19935;-56
2021/07/22 13:51:39;;;;;;;;;;;26.50;64.30;;;;;;5160594;28;19940;-58
2021/07/22 13:54:12;;;;;;;;;;;26.50;64.30;;;;;;5162109;28;20922;-56
2021/07/22 13:56:46;;;;;;;;;;;26.50;64.30;;;;;;5148900;28;19925;-58
2021/07/22 13:59:18;;;;;;;;;;;26.50;64.30;;;;;;5163463;28;20617;-55
2021/07/22 14:01:50;;;;;;;;;;;26.60;64.30;;;;;;5165034;28;19933;-54
2021/07/22 14:04:23;;;;;;;;;;;26.60;64.40;;;;;;5157823;28;20644;-56
2021/07/22 14:06:55;;;;;;;;;;;26.60;64.30;;;;;;5158647;28;19929;-60
2021/07/22 14:09:27;;;;;;;;;;;26.60;64.20;;;;;;5159350;28;19959;-55
2021/07/22 14:12:00;;;;;;;;;;;26.60;64.20;;;;;;5158477;28;19929;-56
2021/07/22 14:14:32;;;;;;;;;;;26.60;64.20;;;;;;5162638;28;19925;-57
2021/07/22 14:17:05;;;;;;;;;;;26.60;64.20;;;;;;5136191;28;20310;-58
2021/07/22 14:19:37;;;;;;;;;;;26.70;64.20;;;;;;5166391;28;19932;-55
2021/07/22 14:22:09;;;;;;;;;;;26.70;64.20;;;;;;5157747;28;19929;-57
2021/07/22 14:24:41;;;;;;;;;;;26.70;64.10;;;;;;5147294;28;26267;-56
2021/07/22 14:27:13;;;;;;;;;;;26.70;63.90;;;;;;5170609;28;19929;-57
2021/07/22 14:29:45;;;;;;;;;;;26.70;63.60;;;;;;5180853;28;19931;-56
2021/07/22 14:32:18;;;;;;;;;;;26.70;63.60;;;;;;5165845;28;19928;-55
2021/07/22 14:34:51;;;;;;;;;;;26.70;64.30;;;;;;5169002;28;19936;-57
2021/07/22 14:37:24;;;;;;;;;;;26.60;63.50;;;;;;5166165;28;20795;-53
2021/07/22 14:39:57;;;;;;;;;;;26.60;63.60;;;;;;5167039;28;20823;-56
2021/07/22 14:42:29;;;;;;;;;;;26.60;63.60;;;;;;5151189;28;19928;-58
2021/07/22 14:45:01;;;;;;;;;;;26.60;64.40;;;;;;5179243;28;19924;-56
2021/07/22 14:47:36;;;;;;;;;;;26.50;64.10;;;;;;5164791;28;19929;-57
2021/07/22 14:50:09;;;;;;;;;;;26.50;64.00;;;;;;5165464;28;19955;-63
2021/07/22 14:52:41;;;;;;;;;;;26.50;64.10;;;;;;5166907;28;20556;-63
2021/07/22 14:55:17;;;;;;;;;;;26.50;64.20;;;;;;5163618;28;19936;-62
2021/07/22 14:57:50;;;;;;;;;;;26.60;64.20;;;;;;5180517;28;19943;-62
2021/07/22 15:00:22;;;;;;;;;;;26.60;64.10;;;;;;5173651;28;19956;-63
2021/07/22 15:02:55;;;;;;;;;;;26.60;64.20;;;;;;5178051;28;20020;-62